Time;durP1;ratioP1;P1;durP2;ratioP2;P2;SDS_P1;SDS_P2;PMS_P1;PMS_P2;Temp;Humidity;BMP_temperature;BMP_pressure;BME280_temperature;BME280_humidity;BME280_pressure;Samples;Min_cycle;Max_cycle;Signal;HPM_P1;HPM_P2
2022/01/27 00:05:25;;;;;;;20.73;10.93;;;;;;;1.05;100.00;100264.34;5116593;28;20040;-78
2022/01/27 00:08:14;;;;;;;23.45;13.30;;;;;;;1.09;100.00;100260.97;5101420;28;20071;-78
2022/01/27 00:11:03;;;;;;;18.42;10.63;;;;;;;1.05;100.00;100251.44;5115755;28;20050;-79
2022/01/27 00:13:57;;;;;;;21.88;12.13;;;;;;;1.02;100.00;100247.06;5115865;28;20035;-78
2022/01/27 00:16:51;;;;;;;19.48;12.48;;;;;;;1.00;100.00;100251.31;5115617;28;20112;-79
2022/01/27 00:19:35;;;;;;;20.33;12.23;;;;;;;1.03;100.00;100251.38;5115797;28;20063;-78
2022/01/27 00:22:20;;;;;;;17.17;11.30;;;;;;;1.00;100.00;100243.59;5101353;28;20357;-78
2022/01/27 00:25:06;;;;;;;22.77;12.23;;;;;;;1.02;100.00;100254.81;5115615;28;20040;-78
2022/01/27 00:27:50;;;;;;;25.52;13.95;;;;;;;1.08;100.00;100256.66;5115523;28;20403;-78
2022/01/27 00:30:37;;;;;;;20.48;11.48;;;;;;;1.12;100.00;100243.84;5101352;28;20035;-78
2022/01/27 00:33:21;;;;;;;23.48;12.48;;;;;;;1.11;100.00;100238.66;5115799;28;20040;-78
2022/01/27 00:36:06;;;;;;;24.85;13.88;;;;;;;0.97;100.00;100219.44;5116265;28;20047;-79
2022/01/27 00:38:51;;;;;;;24.52;13.70;;;;;;;1.03;100.00;100237.63;5101071;28;20096;-78
2022/01/27 00:41:35;;;;;;;22.38;13.18;;;;;;;0.96;100.00;100233.19;5100928;28;20446;-78
2022/01/27 00:44:20;;;;;;;22.70;13.05;;;;;;;1.02;100.00;100235.91;5101253;28;20046;-78
2022/01/27 00:47:04;;;;;;;19.55;11.57;;;;;;;1.10;100.00;100255.81;5115391;28;20134;-78
2022/01/27 00:49:49;;;;;;;21.90;12.07;;;;;;;1.07;100.00;100249.75;5115320;28;20043;-78
2022/01/27 00:52:43;;;;;;;20.80;11.95;;;;;;;1.02;100.00;100243.63;5116049;28;20040;-78
2022/01/27 00:55:32;;;;;;;23.33;12.20;;;;;;;1.04;100.00;100237.66;5115947;28;20055;-78
2022/01/27 01:01:25;;;;;;;23.65;12.73;;;;;;;1.14;100.00;100230.97;5116167;28;20039;-78
2022/01/27 01:04:11;;;;;;;22.73;11.57;;;;;;;1.16;100.00;100234.44;5119419;28;20047;-78
2022/01/27 01:06:55;;;;;;;23.80;13.95;;;;;;;1.16;100.00;100226.69;5119987;28;20043;-78
2022/01/27 01:15:18;;;;;;;21.38;12.57;;;;;;;1.12;100.00;100230.94;5119198;28;20078;-78
2022/01/27 01:18:23;;;;;;;22.25;12.38;;;;;;;1.12;100.00;100209.44;5118812;28;20044;-78
2022/01/27 01:30:34;;;;;;;23.67;13.18;;;;;;;1.20;100.00;100201.81;5088879;28;20059;-79
2022/01/27 01:33:26;;;;;;;24.75;12.05;;;;;;;1.23;100.00;100200.16;5118683;28;20054;-78
2022/01/27 01:36:26;;;;;;;26.77;14.73;;;;;;;1.24;100.00;100204.50;5118935;28;20400;-78
2022/01/27 01:39:12;;;;;;;25.00;12.88;;;;;;;1.21;100.00;100191.56;5104499;28;20055;-78
2022/01/27 01:41:58;;;;;;;24.60;12.30;;;;;;;1.16;100.00;100193.16;5118436;28;20073;-78
2022/01/27 01:44:43;;;;;;;25.85;13.30;;;;;;;1.21;100.00;100199.28;5118455;28;20067;-78
2022/01/27 01:47:28;;;;;;;24.70;13.02;;;;;;;1.22;100.00;100203.59;5118509;28;20054;-79
2022/01/27 01:50:13;;;;;;;29.73;15.00;;;;;;;1.26;100.00;100207.09;5118498;28;20430;-78
2022/01/27 01:52:59;;;;;;;26.77;14.00;;;;;;;1.27;100.00;100202.00;5104052;28;20036;-78
2022/01/27 01:55:43;;;;;;;26.10;12.82;;;;;;;1.28;100.00;100193.41;5118333;28;20040;-78
2022/01/27 01:58:27;;;;;;;24.63;13.48;;;;;;;1.27;100.00;100181.34;5103699;28;20055;-78
2022/01/27 02:01:11;;;;;;;25.80;13.65;;;;;;;1.31;100.00;100190.00;5118182;28;20040;-78
2022/01/27 02:03:59;;;;;;;24.55;13.07;;;;;;;1.24;100.00;100186.44;5118113;28;20422;-78
2022/01/27 02:06:50;;;;;;;25.25;13.90;;;;;;;1.19;100.00;100189.78;5118021;28;20043;-78
2022/01/27 02:18:47;;;;;;;27.92;14.50;;;;;;;1.47;100.00;100170.50;5118534;28;20044;-78
2022/01/27 02:21:32;;;;;;;34.20;17.00;;;;;;;1.34;100.00;100161.69;5117814;28;20040;-78
2022/01/27 02:24:17;;;;;;;27.65;14.68;;;;;;;1.18;100.00;100163.09;5118652;28;20043;-78
2022/01/27 02:27:05;;;;;;;29.92;14.80;;;;;;;1.26;100.00;100158.94;5103373;28;20509;-78
2022/01/27 02:29:49;;;;;;;31.20;15.95;;;;;;;1.35;100.00;100159.09;5118317;28;20122;-78
2022/01/27 02:32:33;;;;;;;30.58;14.65;;;;;;;1.38;100.00;100154.00;5118320;28;20043;-78
2022/01/27 02:35:19;;;;;;;28.88;14.27;;;;;;;1.31;100.00;100148.72;5088865;28;20449;-78
2022/01/27 02:38:05;;;;;;;29.73;13.60;;;;;;;1.28;100.00;100157.25;5117237;28;20052;-78
2022/01/27 02:40:59;;;;;;;29.42;14.05;;;;;;;1.43;100.00;100151.50;5117371;28;20040;-78
2022/01/27 02:43:43;;;;;;;28.73;14.85;;;;;;;1.34;100.00;100159.09;5117409;28;20050;-78
2022/01/27 02:46:41;;;;;;;31.05;15.38;;;;;;;1.40;100.00;100152.31;5117340;28;20100;-78
2022/01/27 02:49:26;;;;;;;29.17;14.07;;;;;;;1.38;100.00;100159.16;5117305;28;20130;-78
2022/01/27 02:52:12;;;;;;;31.55;16.40;;;;;;;1.39;100.00;100153.16;5117962;28;20043;-78
2022/01/27 02:54:57;;;;;;;31.15;15.35;;;;;;;1.30;100.00;100142.69;5117141;28;20346;-78
2022/01/27 02:57:41;;;;;;;31.63;14.70;;;;;;;1.42;100.00;100141.16;5102464;28;20047;-78
2022/01/27 03:00:26;;;;;;;28.45;14.70;;;;;;;1.26;100.00;100134.84;5102810;28;20422;-78
2022/01/27 03:03:10;;;;;;;35.95;15.82;;;;;;;1.46;100.00;100141.22;5117249;28;20055;-78
2022/01/27 03:05:56;;;;;;;29.23;14.20;;;;;;;1.42;100.00;100142.00;5102589;28;20495;-78
2022/01/27 03:08:41;;;;;;;32.22;15.65;;;;;;;1.41;100.00;100137.69;5116850;28;20062;-78
2022/01/27 03:11:36;;;;;;;35.22;15.52;;;;;;;1.51;100.00;100138.72;5116792;28;20036;-79
2022/01/27 03:14:22;;;;;;;28.98;14.80;;;;;;;1.39;100.00;100131.63;5116871;28;20040;-78
2022/01/27 03:17:08;;;;;;;31.83;15.27;;;;;;;1.36;100.00;100114.38;5116533;28;20039;-79
2022/01/27 03:19:52;;;;;;;33.63;15.57;;;;;;;1.33;100.00;100111.78;5116621;28;20036;-78
2022/01/27 03:22:37;;;;;;;32.17;15.07;;;;;;;1.46;100.00;100114.53;5116730;28;20040;-78
2022/01/27 03:25:21;;;;;;;31.75;14.88;;;;;;;1.53;100.00;100108.66;5116167;28;20040;-78
2022/01/27 03:28:09;;;;;;;33.00;14.23;;;;;;;1.50;100.00;100111.19;5102112;28;20043;-78
2022/01/27 03:30:53;;;;;;;29.08;15.55;;;;;;;1.49;100.00;100115.44;5116396;28;20134;-78
2022/01/27 03:33:39;;;;;;;30.67;13.15;;;;;;;1.43;100.00;100104.16;5117094;28;20036;-78
2022/01/27 03:36:24;;;;;;;30.27;15.73;;;;;;;1.43;100.00;100117.06;5102210;28;20035;-79
2022/01/27 03:39:09;;;;;;;30.58;14.88;;;;;;;1.51;100.00;100118.06;5102283;28;20039;-78
2022/01/27 03:41:55;;;;;;;34.13;16.23;;;;;;;1.53;100.00;100117.25;5116929;28;20063;-78
2022/01/27 03:44:40;;;;;;;33.03;14.02;;;;;;;1.60;100.00;100115.66;5101950;28;20043;-79
2022/01/27 03:47:24;;;;;;;30.13;14.20;;;;;;;1.58;100.00;100112.16;5116259;28;20088;-78
2022/01/27 03:50:09;;;;;;;30.77;14.35;;;;;;;1.49;100.00;100105.13;5101773;28;20043;-78
2022/01/27 03:52:53;;;;;;;28.00;12.68;;;;;;;1.55;100.00;100094.03;5101814;28;20044;-78
2022/01/27 03:55:38;;;;;;;32.17;15.00;;;;;;;1.48;100.00;100069.84;5101853;28;20042;-78
2022/01/27 03:58:22;;;;;;;31.20;14.10;;;;;;;1.51;100.00;100079.34;5115741;28;20063;-78
2022/01/27 04:01:07;;;;;;;28.92;14.23;;;;;;;1.62;100.00;100060.56;5115957;28;20047;-78
2022/01/27 04:03:55;;;;;;;29.58;14.00;;;;;;;1.74;100.00;100077.13;5115910;28;20044;-78
2022/01/27 04:06:40;;;;;;;29.70;14.88;;;;;;;1.60;100.00;100057.13;5101291;28;20427;-78
2022/01/27 04:09:27;;;;;;;54.60;29.27;;;;;;;1.61;100.00;100064.00;5116762;28;20043;-78
2022/01/27 04:12:11;;;;;;;124.97;46.85;;;;;;;1.60;100.00;100077.78;5115812;28;20036;-78
2022/01/27 04:14:55;;;;;;;77.00;30.98;;;;;;;1.62;100.00;100075.19;5115671;28;20047;-78
2022/01/27 04:17:39;;;;;;;152.35;58.63;;;;;;;1.59;100.00;100049.34;5101244;28;20334;-78
2022/01/27 04:20:24;;;;;;;100.15;40.85;;;;;;;1.71;100.00;100067.59;5101432;28;20036;-79
2022/01/27 04:23:10;;;;;;;230.77;95.47;;;;;;;1.71;100.00;100075.34;5115544;28;20055;-78
2022/01/27 04:25:54;;;;;;;66.95;30.95;;;;;;;1.67;100.00;100063.25;5101203;28;20044;-78
2022/01/27 04:28:40;;;;;;;60.22;28.35;;;;;;;1.70;100.00;100065.88;5115694;28;20403;-78
2022/01/27 04:31:26;;;;;;;34.55;17.20;;;;;;;1.75;100.00;100059.03;5101279;28;20403;-78
2022/01/27 04:34:12;;;;;;;34.67;15.43;;;;;;;1.75;100.00;100051.28;5115546;28;20425;-79
2022/01/27 04:36:56;;;;;;;33.80;15.85;;;;;;;1.72;100.00;100033.16;5118160;28;20040;-78
2022/01/27 04:39:53;;;;;;;37.90;16.60;;;;;;;1.67;100.00;100058.06;5120532;28;20040;-79
2022/01/27 04:48:47;;;;;;;35.80;16.45;;;;;;;1.71;100.00;100046.94;5112310;28;20059;-78
2022/01/27 04:51:31;;;;;;;32.97;15.63;;;;;;;1.68;100.00;100021.06;5119664;28;20047;-79
2022/01/27 04:54:30;;;;;;;31.02;15.95;;;;;;;1.73;100.00;100044.41;5119616;28;20052;-78
2022/01/27 04:57:16;;;;;;;32.53;15.25;;;;;;;1.76;100.00;100009.16;5119298;28;20054;-79
2022/01/27 05:00:00;;;;;;;31.50;14.45;;;;;;;1.69;100.00;99991.84;5104953;28;20040;-79
2022/01/27 05:02:49;;;;;;;35.15;16.25;;;;;;;1.70;100.00;100006.47;5119999;28;20043;-78
2022/01/27 05:05:37;;;;;;;33.33;16.60;;;;;;;1.69;100.00;99986.69;5105047;28;20036;-78
2022/01/27 05:08:22;;;;;;;32.25;15.70;;;;;;;1.72;100.00;100020.25;5119236;28;20048;-79
2022/01/27 05:11:13;;;;;;;34.30;16.92;;;;;;;1.71;100.00;100015.09;5104838;28;20042;-78
2022/01/27 05:14:08;;;;;;;38.55;18.38;;;;;;;1.63;100.00;99995.19;5119087;28;20158;-79
2022/01/27 05:16:53;;;;;;;41.22;20.52;;;;;;;1.66;100.00;100002.13;5119763;28;20089;-79
2022/01/27 05:19:37;;;;;;;41.00;19.70;;;;;;;1.68;100.00;100005.56;5119056;28;20327;-79
2022/01/27 05:22:21;;;;;;;41.13;19.38;;;;;;;1.67;100.00;99995.25;5104608;28;20039;-79
2022/01/27 05:25:06;;;;;;;37.50;18.95;;;;;;;1.61;100.00;99981.38;5118875;28;20047;-79
2022/01/27 05:27:50;;;;;;;50.15;25.25;;;;;;;1.58;100.00;99991.66;5118800;28;20040;-78
2022/01/27 05:30:35;;;;;;;43.85;22.98;;;;;;;1.64;100.00;100004.66;5119585;28;20035;-79
2022/01/27 05:33:20;;;;;;;33.42;17.95;;;;;;;1.55;100.00;100007.13;5104592;28;20036;-79
2022/01/27 05:36:04;;;;;;;33.85;16.88;;;;;;;1.62;100.00;99995.16;5118724;28;20040;-79
2022/01/27 05:38:49;;;;;;;30.60;15.15;;;;;;;1.58;100.00;99988.22;5104198;28;20044;-79
2022/01/27 05:41:33;;;;;;;29.27;14.63;;;;;;;1.75;100.00;99984.16;5104297;28;20040;-79
2022/01/27 05:44:17;;;;;;;34.17;15.73;;;;;;;1.66;100.00;99991.78;5118683;28;20035;-79
2022/01/27 05:47:02;;;;;;;28.80;13.63;;;;;;;1.67;100.00;99982.31;5088260;28;20097;-79
2022/01/27 05:49:46;;;;;;;26.70;14.45;;;;;;;1.66;100.00;99976.31;5097308;28;20044;-77
2022/01/27 05:52:31;;;;;;;24.42;13.02;;;;;;;1.70;100.00;99990.97;5081916;28;20074;-76
2022/01/27 05:55:15;;;;;;;26.10;12.68;;;;;;;1.63;100.00;99991.75;5081851;28;20046;-77
2022/01/27 05:58:00;;;;;;;27.35;13.38;;;;;;;1.59;100.00;99977.03;5096527;28;20666;-76
2022/01/27 06:00:45;;;;;;;22.73;12.43;;;;;;;1.67;100.00;99990.06;5096728;28;20051;-77
2022/01/27 06:03:30;;;;;;;24.33;13.25;;;;;;;1.65;100.00;99979.72;5096026;28;20472;-76
2022/01/27 06:06:14;;;;;;;26.65;13.52;;;;;;;1.72;100.00;99983.25;5095929;28;20036;-77
2022/01/27 06:08:59;;;;;;;27.42;14.77;;;;;;;1.73;100.00;99978.13;5095991;28;20048;-77
2022/01/27 06:11:43;;;;;;;24.42;12.32;;;;;;;1.61;100.00;99981.38;5095723;28;20444;-76
2022/01/27 06:14:28;;;;;;;28.80;13.88;;;;;;;1.56;100.00;99975.31;5111476;28;20043;-76
2022/01/27 06:17:12;;;;;;;34.00;15.27;;;;;;;1.68;100.00;99984.06;5101597;28;20043;-77
2022/01/27 06:19:57;;;;;;;26.60;13.00;;;;;;;1.68;100.00;99992.66;5101761;28;20055;-77
2022/01/27 06:22:42;;;;;;;25.67;13.35;;;;;;;1.62;100.00;99970.19;5116087;28;20097;-77
2022/01/27 06:25:30;;;;;;;24.17;12.50;;;;;;;1.62;100.00;99969.34;5116780;28;20040;-77
2022/01/27 06:28:14;;;;;;;29.23;14.07;;;;;;;1.57;100.00;99958.09;5115979;28;20384;-77
2022/01/27 06:30:59;;;;;;;21.70;12.73;;;;;;;1.68;100.00;99971.13;5115910;28;20112;-77
2022/01/27 06:33:43;;;;;;;26.13;13.43;;;;;;;1.69;100.00;99962.53;5116401;28;20060;-77
2022/01/27 06:36:27;;;;;;;24.27;13.05;;;;;;;1.65;100.00;99966.78;5116404;28;20036;-77
2022/01/27 06:39:12;;;;;;;24.90;13.10;;;;;;;1.65;100.00;99961.63;5116319;28;20046;-77
2022/01/27 06:41:56;;;;;;;24.98;13.23;;;;;;;1.67;100.00;99954.78;5116183;28;20425;-77
2022/01/27 06:44:40;;;;;;;23.83;12.15;;;;;;;1.68;100.00;99969.41;5100768;28;20036;-77
2022/01/27 06:47:26;;;;;;;22.10;11.48;;;;;;;1.61;100.00;99958.16;5117675;28;20039;-77
2022/01/27 06:50:10;;;;;;;26.00;11.23;;;;;;;1.70;100.00;99965.16;5118570;28;20122;-77
2022/01/27 06:52:55;;;;;;;24.67;11.93;;;;;;;1.71;100.00;99958.28;5117860;28;20100;-76
2022/01/27 06:55:39;;;;;;;25.02;11.63;;;;;;;1.78;100.00;99950.63;5117577;28;20482;-77
2022/01/27 06:58:23;;;;;;;22.05;11.50;;;;;;;1.67;100.00;99948.75;5116859;28;20050;-77
2022/01/27 07:01:08;;;;;;;21.80;11.35;;;;;;;1.60;100.00;99945.22;5116861;28;20043;-77
2022/01/27 07:03:52;;;;;;;22.83;12.13;;;;;;;1.63;100.00;99942.69;5117703;28;20048;-77
2022/01/27 07:06:37;;;;;;;23.73;11.73;;;;;;;1.66;100.00;99958.22;5117688;28;20062;-77
2022/01/27 07:09:21;;;;;;;20.88;10.52;;;;;;;1.59;100.00;99939.19;5118094;28;20414;-77
2022/01/27 07:12:06;;;;;;;24.10;11.60;;;;;;;1.72;100.00;99940.19;5102459;28;20055;-77
2022/01/27 07:14:51;;;;;;;21.98;10.90;;;;;;;1.65;100.00;99933.22;5117746;28;20054;-77
2022/01/27 07:17:36;;;;;;;23.27;10.48;;;;;;;1.69;100.00;99945.34;5102563;28;20456;-77
2022/01/27 07:20:21;;;;;;;17.20;9.48;;;;;;;1.61;100.00;99928.88;5116614;28;20426;-77
2022/01/27 07:23:09;;;;;;;23.20;10.43;;;;;;;1.71;100.00;99943.63;5116657;28;20039;-77
2022/01/27 07:25:53;;;;;;;26.45;10.60;;;;;;;1.72;100.00;99932.44;5116635;28;20046;-77
2022/01/27 07:28:37;;;;;;;19.73;10.48;;;;;;;1.60;100.00;99914.25;5116635;28;20051;-77
2022/01/27 07:31:22;;;;;;;23.52;10.40;;;;;;;1.73;100.00;99920.44;5102392;28;20046;-77
2022/01/27 07:34:07;;;;;;;20.08;9.85;;;;;;;1.78;100.00;99911.88;5117575;28;20115;-77
2022/01/27 07:36:56;;;;;;;19.75;9.60;;;;;;;1.66;100.00;99906.59;5117566;28;20035;-77
2022/01/27 07:39:40;;;;;;;20.10;9.88;;;;;;;1.74;100.00;99907.53;5117306;28;20105;-77
2022/01/27 07:42:25;;;;;;;19.42;9.23;;;;;;;1.81;100.00;99903.28;5116302;28;20430;-78
2022/01/27 07:45:09;;;;;;;22.63;10.93;;;;;;;1.75;100.00;99903.22;5116729;28;20434;-77
2022/01/27 07:47:53;;;;;;;28.95;13.25;;;;;;;1.80;100.00;99902.44;5116963;28;20047;-77
2022/01/27 07:50:38;;;;;;;27.08;13.20;;;;;;;1.72;100.00;99885.97;5116625;28;20054;-76
2022/01/27 07:53:22;;;;;;;19.95;10.55;;;;;;;1.83;100.00;99894.72;5101749;28;20059;-77
2022/01/27 07:56:07;;;;;;;17.73;9.77;;;;;;;1.80;100.00;99891.25;5102273;28;20044;-77
2022/01/27 07:58:51;;;;;;;19.17;9.63;;;;;;;1.75;100.00;99886.00;5115726;28;20437;-77
2022/01/27 08:01:35;;;;;;;32.28;16.73;;;;;;;1.83;100.00;99881.81;5116440;28;20039;-77
2022/01/27 08:04:20;;;;;;;27.75;14.18;;;;;;;1.73;100.00;99871.38;5101791;28;20040;-77
2022/01/27 08:07:04;;;;;;;30.95;17.13;;;;;;;1.69;100.00;99874.75;5115821;28;20067;-77
2022/01/27 08:09:49;;;;;;;37.47;18.17;;;;;;;1.76;100.00;99867.09;5101370;28;20104;-77
2022/01/27 08:12:43;;;;;;;31.60;16.65;;;;;;;1.71;100.00;99863.59;5115781;28;20039;-77
2022/01/27 08:15:28;;;;;;;47.90;25.35;;;;;;;1.72;100.00;99860.13;5116457;28;20039;-77
2022/01/27 08:18:12;;;;;;;116.60;53.92;;;;;;;1.71;100.00;99865.31;5101168;28;20383;-77
2022/01/27 08:20:57;;;;;;;37.63;22.52;;;;;;;1.71;100.00;99865.31;5115627;28;20413;-77
2022/01/27 08:23:43;;;;;;;31.67;18.77;;;;;;;1.71;100.00;99862.72;5116337;28;20036;-77
2022/01/27 08:26:40;;;;;;;30.05;14.90;;;;;;;1.72;100.00;99865.31;5115599;28;20035;-77
2022/01/27 08:29:34;;;;;;;83.47;35.08;;;;;;;1.69;100.00;99859.25;5116809;28;20114;-78
2022/01/27 08:32:29;;;;;;;115.10;47.75;;;;;;;1.58;100.00;99829.00;5116863;28;20043;-77
2022/01/27 08:35:15;;;;;;;251.63;88.25;;;;;;;1.72;100.00;99831.72;5115653;28;20498;-77
2022/01/27 08:38:00;;;;;;;141.75;54.25;;;;;;;1.78;100.00;99836.97;5116012;28;20036;-77
2022/01/27 08:40:44;;;;;;;162.43;64.13;;;;;;;1.71;100.00;99823.97;5116360;28;20101;-77
2022/01/27 08:43:29;;;;;;;148.13;54.42;;;;;;;1.58;100.00;99815.22;5116272;28;20448;-77
2022/01/27 08:46:14;;;;;;;98.63;36.80;;;;;;;1.71;100.00;99818.81;5115473;28;20047;-77
2022/01/27 08:48:58;;;;;;;100.72;41.83;;;;;;;1.63;100.00;99824.78;5116748;28;20189;-77
2022/01/27 08:51:43;;;;;;;65.00;28.75;;;;;;;1.77;100.00;99816.31;5116353;28;20046;-77
2022/01/27 08:54:28;;;;;;;75.45;33.90;;;;;;;1.77;100.00;99813.72;5101121;28;20051;-77
2022/01/27 08:57:12;;;;;;;75.93;38.05;;;;;;;1.62;100.00;99788.59;5115945;28;20052;-77
2022/01/27 08:59:56;;;;;;;51.13;24.67;;;;;;;1.74;100.00;99816.28;5116049;28;20048;-77
2022/01/27 09:02:40;;;;;;;41.08;23.65;;;;;;;1.76;100.00;99807.69;5115828;28;20042;-77
2022/01/27 09:05:25;;;;;;;30.58;16.75;;;;;;;1.89;100.00;99821.59;5116536;28;20433;-77
2022/01/27 09:08:10;;;;;;;23.13;12.18;;;;;;;1.86;100.00;99825.03;5115809;28;20047;-77
2022/01/27 09:10:54;;;;;;;24.70;11.80;;;;;;;1.90;100.00;99807.84;5115362;28;20040;-77
2022/01/27 09:13:38;;;;;;;20.65;12.15;;;;;;;2.04;100.00;99806.22;5101412;28;20036;-77
2022/01/27 09:16:26;;;;;;;18.35;10.45;;;;;;;2.00;100.00;99825.16;5115509;28;20039;-77
2022/01/27 09:19:11;;;;;;;18.73;10.85;;;;;;;2.03;100.00;99820.00;5115371;28;20047;-78
2022/01/27 09:21:55;;;;;;;28.80;11.65;;;;;;;1.97;100.00;99825.13;5115865;28;20036;-78
2022/01/27 09:25:10;;;;;;;23.75;12.27;;;;;;;1.92;100.00;99792.34;5119372;28;20036;-77
2022/01/27 09:27:53;;;;;;;19.58;11.75;;;;;;;1.89;100.00;99788.03;5119713;28;20039;-77
2022/01/27 09:30:37;;;;;;;23.83;12.75;;;;;;;1.89;100.00;99811.28;5104519;28;20071;-77
2022/01/27 09:33:22;;;;;;;25.38;12.95;;;;;;;1.77;100.00;99782.72;5104713;28;20043;-77
2022/01/27 09:36:11;;;;;;;27.10;13.25;;;;;;;1.88;100.00;99799.19;5120057;28;20036;-78
2022/01/27 09:38:55;;;;;;;21.45;11.88;;;;;;;1.94;100.00;99803.56;5119935;28;20040;-77
2022/01/27 09:41:41;;;;;;;29.45;13.52;;;;;;;1.92;100.00;99803.56;5119342;28;20051;-78
2022/01/27 09:44:30;;;;;;;50.75;20.52;;;;;;;2.00;100.00;99794.16;5103131;28;20036;-77
2022/01/27 09:47:16;;;;;;;69.85;31.83;;;;;;;2.00;100.00;99783.81;5098036;28;20044;-78
2022/01/27 09:53:15;;;;;;;61.63;25.92;;;;;;;2.06;100.00;99786.47;5092808;28;20135;-77
2022/01/27 09:56:00;;;;;;;79.75;31.48;;;;;;;1.98;100.00;99762.28;5083764;28;20044;-78
2022/01/27 09:58:44;;;;;;;52.17;24.67;;;;;;;2.05;100.00;99763.19;5098376;28;20074;-78
2022/01/27 10:01:29;;;;;;;50.25;24.40;;;;;;;2.00;100.00;99759.69;5099014;28;20047;-77
2022/01/27 10:04:13;;;;;;;46.70;22.45;;;;;;;2.03;100.00;99764.91;5097554;28;20036;-78
2022/01/27 10:06:58;;;;;;;43.42;20.92;;;;;;;2.16;100.00;99758.13;5098328;28;20434;-77
2022/01/27 10:10:01;;;;;;;38.40;19.25;;;;;;;2.12;100.00;99756.38;5098904;28;20105;-78
2022/01/27 10:12:48;;;;;;;38.05;17.67;;;;;;;2.12;100.00;99731.38;5096994;28;20044;-78
2022/01/27 10:15:42;;;;;;;30.40;16.30;;;;;;;2.15;100.00;99740.88;5096392;28;20097;-78
2022/01/27 10:18:34;;;;;;;30.05;15.02;;;;;;;2.15;100.00;99720.22;5096291;28;20036;-78
2022/01/27 10:21:19;;;;;;;32.70;17.08;;;;;;;2.10;100.00;99715.84;5081263;28;20204;-78
2022/01/27 10:24:24;;;;;;;31.27;15.77;;;;;;;2.16;100.00;99709.00;5095554;28;20060;-77
2022/01/27 10:27:20;;;;;;;31.98;15.00;;;;;;;2.09;100.00;99702.94;5095470;28;20132;-78
2022/01/27 10:33:11;;;;;;;28.52;15.23;;;;;;;2.06;100.00;99702.91;5097694;28;20423;-78
2022/01/27 10:36:12;;;;;;;28.33;15.55;;;;;;;1.91;100.00;99674.38;5097309;28;20407;-78
2022/01/27 10:39:16;;;;;;;31.02;14.85;;;;;;;2.12;100.00;99692.63;5098287;28;20044;-78
2022/01/27 10:42:08;;;;;;;27.38;15.15;;;;;;;2.20;100.00;99678.03;5098205;28;20047;-77
2022/01/27 10:44:56;;;;;;;29.77;15.85;;;;;;;2.18;100.00;99663.34;5096908;28;20146;-77
2022/01/27 10:47:44;;;;;;;27.77;14.52;;;;;;;2.23;100.00;99644.44;5098311;28;20086;-78
2022/01/27 10:50:31;;;;;;;28.52;14.02;;;;;;;2.30;100.00;99648.78;5097311;28;20081;-78
2022/01/27 10:53:17;;;;;;;32.30;14.48;;;;;;;2.32;100.00;99652.25;5082453;28;20332;-78
2022/01/27 10:56:06;;;;;;;28.77;13.68;;;;;;;2.36;100.00;99645.38;5097200;28;20040;-77
2022/01/27 10:58:50;;;;;;;27.52;12.77;;;;;;;2.45;100.00;99631.66;5097430;28;20048;-78
2022/01/27 11:01:40;;;;;;;21.65;12.05;;;;;;;2.53;100.00;99625.63;5082291;28;20113;-78
2022/01/27 11:04:40;;;;;;;24.35;13.32;;;;;;;2.50;100.00;99614.41;5096870;28;20320;-77
2022/01/27 11:07:26;;;;;;;26.95;13.00;;;;;;;2.62;100.00;99611.03;5082638;28;20453;-78
2022/01/27 11:10:11;;;;;;;26.58;14.07;;;;;;;2.62;100.00;99619.66;5082171;28;20040;-78
2022/01/27 11:12:57;;;;;;;28.00;13.93;;;;;;;2.60;100.00;99613.63;5097272;28;20060;-77
2022/01/27 11:15:42;;;;;;;23.60;12.35;;;;;;;2.54;100.00;99600.66;5097688;28;20337;-77
2022/01/27 11:18:29;;;;;;;32.08;15.20;;;;;;;2.62;100.00;99603.28;5096578;28;20040;-78
2022/01/27 11:21:29;;;;;;;23.92;13.82;;;;;;;2.71;100.00;99599.00;5096661;28;20069;-78
2022/01/27 11:24:29;;;;;;;43.65;26.75;;;;;;;2.61;100.00;99589.50;5067734;28;20397;-78
2022/01/27 11:27:14;;;;;;;53.95;34.55;;;;;;;2.53;100.00;99594.59;5096335;28;20047;-77
2022/01/27 11:30:19;;;;;;;82.15;53.42;;;;;;;2.47;100.00;99599.78;5081941;28;20530;-77
2022/01/27 11:33:10;;;;;;;58.13;41.60;;;;;;;2.41;100.00;99584.25;5095846;28;20362;-78
2022/01/27 11:36:09;;;;;;;38.10;23.60;;;;;;;2.35;100.00;99591.97;5096642;28;20043;-77
2022/01/27 11:38:54;;;;;;;33.65;18.33;;;;;;;2.38;100.00;99584.22;5081738;28;20036;-78
2022/01/27 11:41:48;;;;;;;42.40;18.98;;;;;;;2.37;100.00;99574.72;5096898;28;20044;-77
2022/01/27 11:44:36;;;;;;;44.83;20.70;;;;;;;2.16;100.00;99583.25;5096017;28;20136;-79
2022/01/27 11:47:23;;;;;;;58.35;25.40;;;;;;;2.26;100.00;99576.41;5095846;28;20040;-78
2022/01/27 11:50:17;;;;;;;47.92;21.17;;;;;;;2.04;100.00;99568.53;5081567;28;20062;-79
2022/01/27 11:53:08;;;;;;;54.08;22.40;;;;;;;2.06;100.00;99568.56;5081717;28;20479;-78
2022/01/27 11:55:53;;;;;;;54.17;22.48;;;;;;;1.96;100.00;99564.19;5067539;28;20117;-78
2022/01/27 11:58:48;;;;;;;55.88;24.25;;;;;;;2.03;100.00;99563.38;5095452;28;20048;-78
2022/01/27 12:01:37;;;;;;;38.88;18.67;;;;;;;2.04;100.00;99557.34;5096224;28;20043;-78
2022/01/27 12:04:26;;;;;;;33.22;16.55;;;;;;;1.99;100.00;99539.25;5096285;28;20422;-78
2022/01/27 12:07:11;;;;;;;36.53;16.25;;;;;;;2.03;100.00;99537.53;5096078;28;20044;-77
2022/01/27 12:09:57;;;;;;;38.58;19.52;;;;;;;2.02;100.00;99534.09;5081314;28;20302;-78
2022/01/27 12:12:41;;;;;;;36.40;18.13;;;;;;;2.06;100.00;99524.63;5095524;28;20040;-78
2022/01/27 12:15:26;;;;;;;37.38;19.02;;;;;;;2.08;100.00;99520.31;5096773;28;20040;-77
2022/01/27 12:18:36;;;;;;;60.75;27.58;;;;;;;2.11;100.00;99517.75;5096099;28;20039;-77
2022/01/27 12:21:40;;;;;;;48.97;26.00;;;;;;;2.06;100.00;99516.88;5096309;28;20044;-77
2022/01/27 12:24:29;;;;;;;54.22;25.88;;;;;;;2.12;100.00;99508.31;5096633;28;20044;-77
2022/01/27 12:27:18;;;;;;;50.25;26.15;;;;;;;2.05;100.00;99507.41;5080999;28;20067;-79
2022/01/27 12:30:06;;;;;;;48.17;28.15;;;;;;;1.86;100.00;99497.00;5080750;28;20040;-76
2022/01/27 12:32:55;;;;;;;111.25;55.15;;;;;;;1.88;100.00;99494.41;5095996;28;20044;-80
2022/01/27 12:35:40;;;;;;;90.70;44.58;;;;;;;1.92;100.00;99493.56;5093778;28;20355;-79
2022/01/27 12:38:24;;;;;;;50.15;26.52;;;;;;;1.73;100.00;99465.94;5093231;28;20036;-79
2022/01/27 12:41:09;;;;;;;53.40;28.27;;;;;;;1.75;100.00;99479.69;5079052;28;20040;-79
2022/01/27 12:43:53;;;;;;;63.85;34.28;;;;;;;1.78;100.00;99483.16;5094347;28;20044;-79
2022/01/27 12:46:38;;;;;;;55.90;32.58;;;;;;;1.75;100.00;99465.06;5093566;28;20060;-79
2022/01/27 12:49:45;;;;;;;46.65;26.48;;;;;;;1.68;100.00;99468.47;5093571;28;20048;-79
2022/01/27 12:52:36;;;;;;;45.95;23.35;;;;;;;1.64;100.00;99467.59;5093136;28;20040;-80
2022/01/27 12:55:27;;;;;;;47.38;22.08;;;;;;;1.59;100.00;99463.25;5093239;28;20040;-80
2022/01/27 12:58:17;;;;;;;52.53;28.10;;;;;;;1.48;100.00;99446.84;5095192;28;20424;-80
2022/01/27 13:01:02;;;;;;;45.92;22.08;;;;;;;1.57;100.00;99455.50;5083211;28;20131;-80
2022/01/27 13:04:00;;;;;;;46.10;22.73;;;;;;;1.58;100.00;99458.97;5083463;28;20147;-80
2022/01/27 13:06:51;;;;;;;39.25;19.85;;;;;;;1.57;100.00;99460.69;5070283;28;20361;-80
2022/01/27 13:09:38;;;;;;;39.13;19.92;;;;;;;1.52;100.00;99451.16;5085164;28;20047;-81
2022/01/27 13:12:29;;;;;;;37.97;18.90;;;;;;;1.54;100.00;99464.97;5084638;28;20044;-81
2022/01/27 13:15:18;;;;;;;47.97;22.15;;;;;;;1.54;100.00;99458.06;5098799;28;20047;-80
2022/01/27 13:18:16;;;;;;;43.70;22.73;;;;;;;1.61;100.00;99446.94;5084648;28;20063;-80
2022/01/27 13:21:03;;;;;;;48.55;26.15;;;;;;;1.48;100.00;99433.94;5084384;28;20055;-81
2022/01/27 13:24:02;;;;;;;37.83;20.02;;;;;;;1.49;100.00;99446.00;5098971;28;20063;-82
2022/01/27 13:26:49;;;;;;;37.63;19.58;;;;;;;1.42;100.00;99433.91;5098545;28;20040;-80
2022/01/27 13:29:45;;;;;;;48.90;22.42;;;;;;;1.42;100.00;99436.50;5084910;28;20044;-80